NCAR-RAP Real-Time Weather Data

Output produced by METARs form (26 May 2022  07:04 UTC)
found at http://weather.rap.ucar.edu/surface/
 
KTUS 260653Z 24004KT 10SM CLR 25/M03 A2994 RMK AO2 SLP087 T02501033 403720178
KTUS 260553Z 23006KT 10SM CLR 24/M06 A2993 RMK AO2 SLP088 T02441056 10367 20244 53017
KTUS 260453Z 00000KT 10SM CLR 29/M05 A2991 RMK AO2 SLP077 T02891050
KTUS 260353Z 35003KT 10SM CLR 31/M06 A2989 RMK AO2 SLP071 T03061061
KTUS 260253Z 33006KT 10SM CLR 32/M07 A2988 RMK AO2 SLP069 T03221067 53008
KTUS 260153Z 34009KT 10SM CLR 34/M08 A2987 RMK AO2 SLP065 T03441078
KTUS 260053Z 32009KT 10SM CLR 36/M08 A2986 RMK AO2 SLP062 T03611083
KTUS 252353Z 29006KT 10SM CLR 37/M09 A2986 RMK AO2 SLP061 T03671094 10372 20317 56015
KTUS 252253Z 27008KT 10SM CLR 36/M09 A2987 RMK AO2 SLP066 T03611094
KTUS 252153Z 00000KT 10SM CLR 35/M09 A2989 RMK AO2 SLP072 T03501094
KTUS 252053Z 26008KT 10SM CLR 36/M09 A2990 RMK AO2 SLP077 T03611094 58017
KTUS 251953Z 00000KT 10SM CLR 35/M06 A2992 RMK AO2 SLP084 T03501061
KTUS 251853Z 23004KT 10SM CLR 34/M02 A2994 RMK AO2 SLP091 T03441022
KTUS 251753Z VRB04KT 10SM CLR 32/M01 A2996 RMK AO2 SLP096 T03171006 10317 20178 58003
KTUS 251653Z 31010KT 10SM CLR 31/01 A2997 RMK AO2 SLP098 T03060006
KTUS 251553Z 00000KT 10SM CLR 28/03 A2997 RMK AO2 SLP099 T02830028
KTUS 251453Z 17003KT 10SM CLR 24/02 A2997 RMK AO2 SLP101 T02440017 51010
KTUS 251353Z 15005KT 9SM CLR 21/02 A2996 RMK AO2 SLP100 T02110017
KTUS 251253Z 13007KT 10SM CLR 18/01 A2995 RMK AO2 SLP097 T01830006
KTUS 251153Z 14004KT 10SM CLR 18/01 A2993 RMK AO2 SLP091 T01830006 10239 20183 53007
KTUS 251053Z 14008KT 10SM CLR 19/00 A2992 RMK AO2 SLP087 T01940000
KTUS 250953Z 14006KT 10SM CLR 20/M01 A2991 RMK AO2 SLP082 T02001011
KTUS 250853Z 12006KT 10SM CLR 20/M06 A2991 RMK AO2 SLP083 T02001061 51008
KTUS 250753Z 16004KT 10SM CLR 21/M08 A2990 RMK AO2 SLP080 T02061078
KTUS 250653Z 14005KT 10SM CLR 22/M09 A2990 RMK AO2 SLP077 T02171094 403440178
KTUS 250553Z 18004KT 10SM CLR 24/M09 A2989 RMK AO2 SLP074 T02391094 10333 20239 52013
KTUS 250453Z AUTO 26004KT 10SM CLR 26/M08 A2987 RMK AO2 SLP069 T02561083
KTUS 250353Z 27004KT 10SM CLR 27/M09 A2986 RMK AO2 SLP063 T02721094
KTUS 250253Z 32005KT 10SM CLR 29/M10 A2984 RMK AO2 SLP061 T02891100 53008
KTUS 250153Z 31007KT 10SM CLR 32/M13 A2983 RMK AO2 SLP054 T03171133
KTUS 250053Z 32007G17KT 10SM CLR 33/M09 A2982 RMK AO2 SLP050 T03331094
KTUS 242353Z 34009G15KT 10SM CLR 33/M11 A2982 RMK AO2 SLP051 T03331106 10344 20300 56011
KTUS 242253Z 33015G23KT 10SM CLR 33/M11 A2983 RMK AO2 SLP052 T03331111
KTUS 242153Z 30010G21KT 10SM CLR 33/M10 A2984 RMK AO2 SLP055 T03331100
KTUS 242053Z 30013G21KT 10SM CLR 33/M09 A2986 RMK AO2 WSHFT 2033 SLP061 T03331089 58012
KTUS 241953Z 32011G21KT 10SM CLR 32/M08 A2987 RMK AO2 SLP066 T03221083
KTUS 241853Z 35008KT 10SM CLR 32/M07 A2989 RMK AO2 SLP071 T03221072
KTUS 241753Z 31008G14KT 10SM CLR 29/M04 A2989 RMK AO2 SLP076 T02941039 10294 20178 58003
KTUS 241653Z 29005KT 10SM CLR 29/M02 A2990 RMK AO2 SLP077 T02891017
KTUS 241553Z 34003KT 10SM CLR 27/M01 A2991 RMK AO2 SLP080 T02671011
KTUS 241453Z 18003KT 10SM CLR 23/M01 A2990 RMK AO2 SLP080 T02331011 51012
KTUS 241353Z 00000KT 10SM CLR 20/M01 A2989 RMK AO2 SLP079 T02001006
KTUS 241253Z 15007KT 10SM CLR 19/M01 A2989 RMK AO2 SLP075 T01891006
KTUS 241153Z 14006KT 10SM CLR 19/M01 A2986 RMK AO2 SLP067 T01941006 10250 20194 53002
KTUS 241053Z 11004KT 10SM CLR 21/M01 A2986 RMK AO2 SLP063 T02111006
KTUS 240953Z AUTO 11004KT 10SM CLR 22/02 A2985 RMK AO2 SLP060 T02170017
KTUS 240853Z AUTO 01004KT 10SM CLR 22/02 A2986 RMK AO2 SLP062 T02170022 58001
KTUS 240753Z AUTO 18008KT 10SM CLR 23/03 A2986 RMK AO2 SLP062 T02280028